createdAt,value
2022-10-10T00:01:37.445Z,4.93
2022-10-10T00:04:06.196Z,8.75
2022-10-10T00:06:35.184Z,6.18
2022-10-10T00:09:05.125Z,4.82
2022-10-10T00:11:34.448Z,4.53
2022-10-10T00:14:02.722Z,7.47
2022-10-10T00:16:31.079Z,5.30
2022-10-10T00:18:59.427Z,3.72
2022-10-10T00:21:27.833Z,8.45
2022-10-10T00:23:56.152Z,3.20
2022-10-10T00:26:24.626Z,4.30
2022-10-10T00:28:53.081Z,3.85
2022-10-10T00:31:21.777Z,4.72
2022-10-10T00:33:50.288Z,4.60
2022-10-10T00:36:20.695Z,7.07
2022-10-10T00:38:49.126Z,5.75
2022-10-10T00:41:17.836Z,6.93
2022-10-10T00:44:01.798Z,4.60
2022-10-10T00:46:30.279Z,5.05
2022-10-10T00:48:59.022Z,5.47
2022-10-10T00:51:27.651Z,3.63
2022-10-10T00:53:59.933Z,2.90
2022-10-10T00:56:33.302Z,7.38
2022-10-10T00:59:05.510Z,8.93
2022-10-10T01:01:34.104Z,5.75
2022-10-10T01:04:04.414Z,4.50
2022-10-10T01:06:34.226Z,4.55
2022-10-10T01:09:02.836Z,2.77
2022-10-10T01:11:46.469Z,3.40
2022-10-10T01:14:18.489Z,5.78
2022-10-10T01:16:53.237Z,5.18
2022-10-10T01:19:24.474Z,5.53
2022-10-10T01:22:10.921Z,6.10
2022-10-10T01:24:52.725Z,4.80
2022-10-10T01:27:33.658Z,5.80
2022-10-10T01:30:16.676Z,7.18
2022-10-10T01:32:51.368Z,5.65
2022-10-10T01:35:26.323Z,6.18
2022-10-10T01:38:00.346Z,6.47
2022-10-10T01:40:50.800Z,3.63
2022-10-10T01:43:19.270Z,5.25
2022-10-10T01:45:50.324Z,5.50
2022-10-10T01:48:23.844Z,5.75
2022-10-10T01:50:58.067Z,5.30
2022-10-10T01:53:54.306Z,5.97
2022-10-10T01:56:31.865Z,5.43
2022-10-10T01:59:03.122Z,5.63
2022-10-10T02:01:44.563Z,5.47
2022-10-10T02:04:35.204Z,7.10
2022-10-10T02:07:10.689Z,6.25
2022-10-10T02:09:42.716Z,3.45
2022-10-10T02:12:14.579Z,8.07
2022-10-10T02:14:46.304Z,3.95
2022-10-10T02:17:16.024Z,6.47
2022-10-10T02:19:53.435Z,8.85
2022-10-10T02:22:23.870Z,5.95
2022-10-10T02:24:53.438Z,3.70
2022-10-10T02:27:28.598Z,4.57
2022-10-10T02:29:59.118Z,5.68
2022-10-10T02:32:39.967Z,6.93
2022-10-10T02:35:13.407Z,5.88
2022-10-10T02:37:43.256Z,7.22
2022-10-10T02:40:20.392Z,5.57
2022-10-10T02:42:51.136Z,5.13
2022-10-10T02:45:25.841Z,4.53
2022-10-10T02:47:54.184Z,5.03
2022-10-10T02:50:22.997Z,5.45
2022-10-10T02:52:51.557Z,5.20
2022-10-10T02:55:20.605Z,3.95
2022-10-10T02:57:48.983Z,5.80
2022-10-10T03:00:18.360Z,5.60
2022-10-10T03:02:47.069Z,4.20
2022-10-10T03:05:15.744Z,5.78
2022-10-10T03:07:44.179Z,5.93
2022-10-10T03:10:12.553Z,5.38
2022-10-10T03:12:40.868Z,7.65
2022-10-10T03:15:11.919Z,7.13
2022-10-10T03:17:40.654Z,6.78
2022-10-10T03:20:09.959Z,6.05
2022-10-10T03:22:38.326Z,5.20
2022-10-10T03:25:07.914Z,7.00
2022-10-10T03:27:36.289Z,4.95
2022-10-10T03:30:05.920Z,4.30
2022-10-10T03:32:34.293Z,5.50
2022-10-10T03:35:02.619Z,6.07
2022-10-10T03:37:31.189Z,6.03
2022-10-10T03:39:59.467Z,8.10
2022-10-10T03:42:27.755Z,9.07
2022-10-10T03:44:56.006Z,5.20
2022-10-10T03:47:24.459Z,4.85
2022-10-10T03:49:52.749Z,4.97
2022-10-10T03:52:22.010Z,4.38
2022-10-10T03:54:50.373Z,6.85
2022-10-10T03:57:18.704Z,5.30
2022-10-10T03:59:47.077Z,6.45
2022-10-10T04:02:15.424Z,5.60
2022-10-10T04:04:43.728Z,7.53
2022-10-10T04:07:12.042Z,6.70
2022-10-10T04:09:41.526Z,6.57
2022-10-10T04:12:09.937Z,5.65
2022-10-10T04:14:38.272Z,10.32
2022-10-10T04:17:06.668Z,4.82
2022-10-10T04:19:34.974Z,6.15
2022-10-10T04:22:05.941Z,5.60
2022-10-10T04:24:36.120Z,5.85
2022-10-10T04:27:04.658Z,5.75
2022-10-10T04:29:32.947Z,5.05
2022-10-10T04:32:01.315Z,7.10
2022-10-10T04:34:30.706Z,4.72
2022-10-10T04:36:59.101Z,5.60
2022-10-10T04:39:27.579Z,6.05
2022-10-10T04:41:56.921Z,7.85
2022-10-10T04:44:25.247Z,6.40
2022-10-10T04:46:53.567Z,5.18
2022-10-10T04:49:22.121Z,14.57
2022-10-10T04:51:50.734Z,7.28
2022-10-10T04:54:19.015Z,11.18
2022-10-10T04:56:47.465Z,6.60
2022-10-10T04:59:15.799Z,18.50
2022-10-10T05:01:44.197Z,6.68
2022-10-10T05:04:13.643Z,6.78
2022-10-10T05:06:42.020Z,5.68
2022-10-10T05:09:10.377Z,6.53
2022-10-10T05:11:39.066Z,6.32
2022-10-10T05:14:07.498Z,10.52
2022-10-10T05:16:35.909Z,8.00
2022-10-10T05:19:04.307Z,6.60
2022-10-10T05:21:32.858Z,8.30
2022-10-10T05:24:01.999Z,9.85
2022-10-10T05:26:30.391Z,8.20
2022-10-10T05:28:58.816Z,7.60
2022-10-10T05:31:28.847Z,9.00
2022-10-10T05:33:57.494Z,7.72
2022-10-10T05:36:26.568Z,5.82
2022-10-10T05:38:54.990Z,9.65
2022-10-10T05:41:23.697Z,7.88
2022-10-10T05:43:52.082Z,10.57
2022-10-10T05:46:23.137Z,8.13
2022-10-10T05:48:51.583Z,8.60
2022-10-10T05:51:21.252Z,5.10
2022-10-10T05:53:49.608Z,6.95
2022-10-10T05:56:18.019Z,8.23
2022-10-10T05:58:46.721Z,6.00
2022-10-10T06:01:15.069Z,13.05
2022-10-10T06:03:43.482Z,5.85
2022-10-10T06:06:11.743Z,6.53
2022-10-10T06:08:40.033Z,10.60
2022-10-10T06:11:08.607Z,7.47
2022-10-10T06:13:37.894Z,10.23
2022-10-10T06:16:06.436Z,10.07
2022-10-10T06:18:35.119Z,7.25
2022-10-10T06:21:07.031Z,10.07
2022-10-10T06:23:35.441Z,5.85
2022-10-10T06:26:04.491Z,7.35
2022-10-10T06:28:33.358Z,8.18
2022-10-10T06:31:04.063Z,9.07
2022-10-10T06:36:06.925Z,6.60
2022-10-10T06:38:40.306Z,8.75
2022-10-10T06:41:09.142Z,11.43
2022-10-10T06:43:37.497Z,9.85
2022-10-10T06:46:06.192Z,20.67
2022-10-10T06:48:35.618Z,10.18
2022-10-10T06:51:12.944Z,8.68
2022-10-10T06:53:41.951Z,8.50
2022-10-10T06:56:17.821Z,9.38
2022-10-10T06:58:46.200Z,11.02
2022-10-10T07:01:17.419Z,8.68
2022-10-10T07:03:45.926Z,9.75
2022-10-10T07:06:15.637Z,7.75
2022-10-10T07:08:44.427Z,6.90
2022-10-10T07:11:13.341Z,12.18
2022-10-10T07:13:41.843Z,10.77
2022-10-10T07:16:10.774Z,9.00
2022-10-10T07:18:39.070Z,9.60
2022-10-10T07:21:07.659Z,6.55
2022-10-10T07:23:37.271Z,10.93
2022-10-10T07:26:11.223Z,11.35
2022-10-10T07:28:40.215Z,8.07
2022-10-10T07:31:11.151Z,10.38
2022-10-10T07:33:47.397Z,9.77
2022-10-10T07:36:19.687Z,10.25
2022-10-10T07:38:52.395Z,7.53
2022-10-10T07:41:21.306Z,9.18
2022-10-10T07:43:54.354Z,7.80
2022-10-10T07:46:22.996Z,10.40
2022-10-10T07:48:51.379Z,12.80
2022-10-10T07:51:19.645Z,8.10
2022-10-10T07:53:47.918Z,7.55
2022-10-10T07:56:16.202Z,10.07
2022-10-10T07:58:44.575Z,8.18
2022-10-10T08:01:14.307Z,7.18
2022-10-10T08:03:42.671Z,7.00
2022-10-10T08:06:13.785Z,9.18
2022-10-10T08:08:50.293Z,7.38
2022-10-10T08:11:21.626Z,6.40
2022-10-10T08:13:51.012Z,9.35
2022-10-10T08:16:20.178Z,9.15
2022-10-10T08:18:49.427Z,6.95
2022-10-10T08:21:18.526Z,7.43
2022-10-10T08:23:46.851Z,7.47
2022-10-10T08:26:17.082Z,6.00
2022-10-10T08:28:46.122Z,9.57
2022-10-10T08:31:18.056Z,6.88
2022-10-10T08:33:48.205Z,9.18
2022-10-10T08:36:18.945Z,6.32
2022-10-10T08:41:28.482Z,8.57
2022-10-10T08:44:20.144Z,8.23
2022-10-10T08:46:59.424Z,8.68
2022-10-10T08:49:38.682Z,6.90
2022-10-10T08:52:58.284Z,6.97
2022-10-10T08:55:31.313Z,7.22
2022-10-10T08:58:02.541Z,7.35
2022-10-10T09:00:36.760Z,5.82
2022-10-10T09:03:19.749Z,7.97
2022-10-10T09:06:17.534Z,8.30
2022-10-10T09:09:01.570Z,14.27
2022-10-10T09:11:45.523Z,7.47
2022-10-10T09:14:24.208Z,6.25
2022-10-10T09:17:17.221Z,7.25
2022-10-10T09:19:54.641Z,13.52
2022-10-10T09:22:29.044Z,11.95
2022-10-10T09:25:28.011Z,8.40
2022-10-10T09:28:11.330Z,7.07
2022-10-10T09:30:45.704Z,13.38
2022-10-10T09:33:32.709Z,11.63
2022-10-10T09:36:05.127Z,7.18
2022-10-10T09:38:54.231Z,8.20
2022-10-10T09:41:35.186Z,8.70
2022-10-10T09:44:11.462Z,7.70
2022-10-10T09:46:39.938Z,9.23
2022-10-10T09:49:15.478Z,6.70
2022-10-10T09:51:44.863Z,12.52
2022-10-10T09:54:16.069Z,12.57
2022-10-10T09:56:57.348Z,10.15
2022-10-10T09:59:37.928Z,8.90
2022-10-10T10:02:39.669Z,10.30
2022-10-10T10:05:24.007Z,10.45
2022-10-10T10:07:53.842Z,8.95
2022-10-10T10:10:24.530Z,12.67
2022-10-10T10:12:55.206Z,8.75
2022-10-10T10:15:29.872Z,11.73
2022-10-10T10:18:25.159Z,8.35
2022-10-10T10:21:10.853Z,9.20
2022-10-10T10:23:50.060Z,10.27
2022-10-10T10:26:40.823Z,9.95
2022-10-10T10:32:08.148Z,10.93
2022-10-10T10:34:57.405Z,8.27
2022-10-10T10:37:33.528Z,13.32
2022-10-10T10:40:29.236Z,9.63
2022-10-10T10:43:19.549Z,10.73
2022-10-10T10:46:05.784Z,12.50
2022-10-10T10:48:59.573Z,9.63
2022-10-10T10:51:53.244Z,10.38
2022-10-10T10:54:47.329Z,8.27
2022-10-10T10:57:39.397Z,13.27
2022-10-10T11:00:41.231Z,12.18
2022-10-10T11:06:39.570Z,9.35
2022-10-10T11:09:45.085Z,8.63
2022-10-10T11:12:39.157Z,8.35
2022-10-10T11:15:16.427Z,9.13
2022-10-10T11:17:59.820Z,7.18
2022-10-10T11:20:42.588Z,9.63
2022-10-10T11:23:17.534Z,6.45
2022-10-10T11:26:10.293Z,11.27
2022-10-10T11:28:49.255Z,7.07
2022-10-10T11:31:26.847Z,9.77
2022-10-10T11:34:02.634Z,8.00
2022-10-10T11:36:34.386Z,6.78
2022-10-10T11:39:23.847Z,9.68
2022-10-10T11:42:02.711Z,7.32
2022-10-10T11:44:44.897Z,8.70
2022-10-10T11:47:31.731Z,9.70
2022-10-10T11:50:02.736Z,7.50
2022-10-10T11:52:34.411Z,8.75
2022-10-10T11:55:40.111Z,12.80
2022-10-10T11:58:08.275Z,9.85
2022-10-10T12:00:44.738Z,9.15
2022-10-10T12:03:13.823Z,9.43
2022-10-10T12:05:50.370Z,5.78
2022-10-10T12:08:28.603Z,8.50
2022-10-10T12:11:06.118Z,10.30
2022-10-10T12:13:59.505Z,11.02
2022-10-10T12:16:35.827Z,10.82
2022-10-10T12:19:14.441Z,8.88
2022-10-10T12:22:05.495Z,6.03
2022-10-10T12:24:40.940Z,7.43
2022-10-10T12:27:26.923Z,8.00
2022-10-10T12:29:55.355Z,8.52
2022-10-10T12:32:25.173Z,8.32
2022-10-10T12:34:52.341Z,11.32
2022-10-10T12:37:32.056Z,7.85
2022-10-10T12:40:06.193Z,7.72
2022-10-10T12:42:57.821Z,7.20
2022-10-10T12:45:29.127Z,7.07
2022-10-10T12:48:05.956Z,11.30
2022-10-10T12:50:38.117Z,9.52
2022-10-10T12:53:12.341Z,11.73
2022-10-10T12:55:47.223Z,12.95
2022-10-10T12:58:38.809Z,11.23
2022-10-10T13:01:29.184Z,12.05
2022-10-10T13:03:58.407Z,14.80
2022-10-10T13:06:46.919Z,12.52
2022-10-10T13:09:25.235Z,9.48
2022-10-10T13:11:54.344Z,10.65
2022-10-10T13:14:23.730Z,13.25
2022-10-10T13:16:52.323Z,13.75
2022-10-10T13:19:25.365Z,15.90
2022-10-10T13:21:55.296Z,17.35
2022-10-10T13:24:29.812Z,15.23
2022-10-10T13:26:58.337Z,17.85
2022-10-10T13:29:35.004Z,14.70
2022-10-10T13:32:14.781Z,17.45
2022-10-10T13:34:47.491Z,17.37
2022-10-10T13:37:18.660Z,20.25
2022-10-10T13:39:49.661Z,17.42
2022-10-10T13:42:35.115Z,18.63
2022-10-10T13:45:30.346Z,19.35
2022-10-10T13:48:01.876Z,17.23
2022-10-10T13:50:42.345Z,19.33
2022-10-10T13:53:32.093Z,18.73
2022-10-10T13:56:14.961Z,19.48
2022-10-10T13:58:45.569Z,13.10
2022-10-10T14:01:38.909Z,8.95
2022-10-10T14:04:13.227Z,6.13
2022-10-10T14:06:48.481Z,7.47
2022-10-10T14:09:31.939Z,7.82
2022-10-10T14:12:03.319Z,10.75
2022-10-10T14:14:47.865Z,5.85
2022-10-10T14:17:16.900Z,8.98
2022-10-10T14:19:47.430Z,7.05
2022-10-10T14:22:15.925Z,4.18
2022-10-10T14:24:44.536Z,10.18
2022-10-10T14:27:25.515Z,7.20
2022-10-10T14:29:56.748Z,10.18
2022-10-10T14:32:25.286Z,6.97
2022-10-10T14:34:53.728Z,5.32
2022-10-10T14:37:27.732Z,5.03
2022-10-10T14:39:56.546Z,8.57
2022-10-10T14:42:26.441Z,4.80
2022-10-10T14:44:54.723Z,4.88
2022-10-10T14:47:25.121Z,8.05
2022-10-10T14:49:53.523Z,7.68
2022-10-10T14:52:22.918Z,13.13
2022-10-10T14:54:51.282Z,12.82
2022-10-10T14:57:19.978Z,9.20
2022-10-10T14:59:50.289Z,10.77
2022-10-10T15:02:20.803Z,7.95
2022-10-10T15:04:50.175Z,8.52
2022-10-10T15:07:19.127Z,18.65
2022-10-10T15:12:40.910Z,16.77
2022-10-10T15:15:10.330Z,10.85
2022-10-10T15:17:38.765Z,23.38
2022-10-10T15:20:09.211Z,22.05
2022-10-10T15:22:38.352Z,14.63
2022-10-10T15:25:08.482Z,16.30
2022-10-10T15:27:37.609Z,15.27
2022-10-10T15:30:10.581Z,21.52
2022-10-10T15:32:40.586Z,19.52
2022-10-10T15:35:17.951Z,23.98
2022-10-10T15:37:47.633Z,16.45
2022-10-10T15:40:20.682Z,13.63
2022-10-10T15:42:50.516Z,13.45
2022-10-10T15:45:43.625Z,11.75
2022-10-10T15:48:07.652Z,9.68
2022-10-10T15:50:43.067Z,12.60
2022-10-10T15:53:11.496Z,16.25
2022-10-10T15:55:47.301Z,15.57
2022-10-10T15:58:16.295Z,8.88
2022-10-10T16:00:45.045Z,7.22
2022-10-10T16:03:13.582Z,16.38
2022-10-10T16:05:42.897Z,12.70
2022-10-10T16:08:14.107Z,11.20
2022-10-10T16:10:43.733Z,11.95
2022-10-10T16:13:12.106Z,13.77
2022-10-10T16:15:40.481Z,13.40
2022-10-10T16:18:08.953Z,9.43
2022-10-10T16:20:39.335Z,17.42
2022-10-10T16:23:08.440Z,13.73
2022-10-10T16:25:36.735Z,13.23
2022-10-10T16:28:05.248Z,14.98
2022-10-10T16:30:33.676Z,14.73
2022-10-10T16:33:02.004Z,14.40
2022-10-10T16:35:30.492Z,12.57
2022-10-10T16:38:00.638Z,16.90
2022-10-10T16:40:28.956Z,19.52
2022-10-10T16:42:57.189Z,14.60
2022-10-10T16:45:25.480Z,20.55
2022-10-10T16:47:53.924Z,12.60
2022-10-10T16:50:22.308Z,14.77
2022-10-10T16:52:51.155Z,14.85
2022-10-10T16:55:19.638Z,11.70
2022-10-10T16:57:47.972Z,10.10
2022-10-10T17:00:16.470Z,14.20
2022-10-10T17:02:44.705Z,13.02
2022-10-10T17:05:12.969Z,10.20
2022-10-10T17:07:41.385Z,12.35
2022-10-10T17:10:09.980Z,13.00
2022-10-10T17:12:38.238Z,13.13
2022-10-10T17:15:07.114Z,18.55
2022-10-10T17:17:35.955Z,13.30
2022-10-10T17:20:05.849Z,10.98
2022-10-10T17:22:34.661Z,14.98
2022-10-10T17:25:03.482Z,17.52
2022-10-10T17:27:32.261Z,13.90
2022-10-10T17:30:00.761Z,12.73
2022-10-10T17:32:29.187Z,16.85
2022-10-10T17:34:58.640Z,13.20
2022-10-10T17:37:27.053Z,14.70
2022-10-10T17:39:55.502Z,17.35
2022-10-10T17:42:23.944Z,13.55
2022-10-10T17:44:56.207Z,9.57
2022-10-10T17:47:25.466Z,15.48
2022-10-10T17:49:53.900Z,12.85
2022-10-10T17:52:22.488Z,9.93
2022-10-10T17:54:51.192Z,12.07
2022-10-10T17:57:20.093Z,10.50
2022-10-10T17:59:50.240Z,12.85
2022-10-10T18:02:19.133Z,7.13
2022-10-10T18:04:47.579Z,15.27
2022-10-10T18:07:16.020Z,16.15
2022-10-10T18:09:45.207Z,16.08
2022-10-10T18:12:13.613Z,14.70
2022-10-10T18:14:42.030Z,12.25
2022-10-10T18:17:10.955Z,16.52
2022-10-10T18:19:39.323Z,13.43
2022-10-10T18:22:07.695Z,12.35
2022-10-10T18:24:35.981Z,19.55
2022-10-10T18:27:06.833Z,12.13
2022-10-10T18:29:35.726Z,13.32
2022-10-10T18:32:06.897Z,13.18
2022-10-10T18:34:35.375Z,15.68
2022-10-10T18:37:04.761Z,16.95
2022-10-10T18:39:35.883Z,13.95
2022-10-10T18:42:04.603Z,17.40
2022-10-10T18:44:33.259Z,13.63
2022-10-10T18:47:01.794Z,15.52
2022-10-10T18:49:33.242Z,19.85
2022-10-10T18:52:03.219Z,21.23
2022-10-10T18:54:33.146Z,13.18
2022-10-10T18:57:01.869Z,12.00
2022-10-10T18:59:32.248Z,12.05
2022-10-10T19:02:01.430Z,11.60
2022-10-10T19:04:29.915Z,10.80
2022-10-10T19:06:58.406Z,15.98
2022-10-10T19:09:27.022Z,14.15
2022-10-10T19:11:55.987Z,11.65
2022-10-10T19:14:24.298Z,11.35
2022-10-10T19:16:53.018Z,9.10
2022-10-10T19:19:21.491Z,11.27
2022-10-10T19:21:51.385Z,7.93
2022-10-10T19:24:21.538Z,12.02
2022-10-10T19:26:53.428Z,11.80
2022-10-10T19:29:23.573Z,21.67
2022-10-10T19:31:52.411Z,22.27
2022-10-10T19:34:20.865Z,27.52
2022-10-10T19:36:53.079Z,19.95
2022-10-10T19:39:21.535Z,13.90
2022-10-10T19:41:56.163Z,19.52
2022-10-10T19:44:24.860Z,14.20
2022-10-10T19:46:54.863Z,13.52
2022-10-10T19:49:23.411Z,13.25
2022-10-10T19:51:53.590Z,15.27
2022-10-10T19:54:22.310Z,17.35
2022-10-10T19:56:53.734Z,13.35
2022-10-10T19:59:22.421Z,13.75
2022-10-10T20:01:50.847Z,9.52
2022-10-10T20:04:20.828Z,12.35
2022-10-10T20:06:49.759Z,17.48
2022-10-10T20:09:18.042Z,20.25
2022-10-10T20:11:46.860Z,13.80
2022-10-10T20:14:15.709Z,9.45
2022-10-10T20:16:44.737Z,15.80
2022-10-10T20:19:13.424Z,17.75
2022-10-10T20:21:41.882Z,12.05
2022-10-10T20:24:10.328Z,17.90
2022-10-10T20:26:41.975Z,11.75
2022-10-10T20:29:11.238Z,10.80
2022-10-10T20:31:40.252Z,11.73
2022-10-10T20:34:09.833Z,10.75
2022-10-10T20:36:39.219Z,14.45
2022-10-10T20:39:14.611Z,12.50
2022-10-10T20:41:43.855Z,14.60
2022-10-10T20:44:15.698Z,11.95
2022-10-10T20:46:45.815Z,12.05
2022-10-10T20:49:18.268Z,8.43
2022-10-10T20:51:54.586Z,10.98
2022-10-10T20:54:24.095Z,16.67
2022-10-10T20:56:52.500Z,11.75
2022-10-10T20:59:21.503Z,8.38
2022-10-10T21:01:50.534Z,13.55
2022-10-10T21:04:18.902Z,12.75
2022-10-10T21:06:49.425Z,16.75
2022-10-10T21:09:17.870Z,9.52
2022-10-10T21:11:50.585Z,12.35
2022-10-10T21:14:19.843Z,8.52
2022-10-10T21:16:51.394Z,9.35
2022-10-10T21:19:20.269Z,12.50
2022-10-10T21:21:54.490Z,16.00
2022-10-10T21:24:22.812Z,19.90
2022-10-10T21:26:51.659Z,12.07
2022-10-10T21:29:20.614Z,13.55
2022-10-10T21:31:53.563Z,10.68
2022-10-10T21:34:21.867Z,11.07
2022-10-10T21:36:50.253Z,13.13
2022-10-10T21:39:18.661Z,14.98
2022-10-10T21:41:47.016Z,9.82
2022-10-10T21:44:16.283Z,23.63
2022-10-10T21:46:44.685Z,15.52
2022-10-10T21:49:13.150Z,14.32
2022-10-10T21:51:45.747Z,11.45
2022-10-10T21:54:14.553Z,7.00
2022-10-10T21:56:42.974Z,17.50
2022-10-10T21:59:11.806Z,18.35
2022-10-10T22:01:40.230Z,12.55
2022-10-10T22:04:09.942Z,12.18
2022-10-10T22:06:38.678Z,16.00
2022-10-10T22:09:06.998Z,14.13
2022-10-10T22:11:35.464Z,12.88
2022-10-10T22:14:04.107Z,15.85
2022-10-10T22:16:33.438Z,12.70
2022-10-10T22:19:02.124Z,15.02
2022-10-10T22:21:32.206Z,15.05
2022-10-10T22:24:03.246Z,11.73
2022-10-10T22:26:31.824Z,10.25
2022-10-10T22:29:00.579Z,11.63
2022-10-10T22:31:29.465Z,19.33
2022-10-10T22:33:58.300Z,8.60
2022-10-10T22:36:27.122Z,10.43
2022-10-10T22:38:55.628Z,15.13
2022-10-10T22:41:24.010Z,6.80
2022-10-10T22:43:52.700Z,16.17
2022-10-10T22:46:21.036Z,10.23
2022-10-10T22:48:49.486Z,18.38
2022-10-10T22:51:19.376Z,13.95
2022-10-10T22:53:49.614Z,15.00
2022-10-10T22:58:50.099Z,19.80
2022-10-10T23:01:21.817Z,18.60
2022-10-10T23:03:53.347Z,9.93
2022-10-10T23:06:21.757Z,12.07
2022-10-10T23:08:50.238Z,14.40
2022-10-10T23:11:18.474Z,11.70
2022-10-10T23:13:46.905Z,14.45
2022-10-10T23:16:16.241Z,13.38
2022-10-10T23:18:44.673Z,17.80
2022-10-10T23:21:13.034Z,13.52
2022-10-10T23:23:41.604Z,19.85
2022-10-10T23:26:10.113Z,13.02
2022-10-10T23:28:39.438Z,13.50
2022-10-10T23:31:10.116Z,13.05
2022-10-10T23:33:39.318Z,11.10
2022-10-10T23:36:11.704Z,9.50
2022-10-10T23:38:40.958Z,11.90
2022-10-10T23:41:11.516Z,11.70
2022-10-10T23:43:40.244Z,11.95
2022-10-10T23:46:09.195Z,10.30
2022-10-10T23:48:38.154Z,12.02
2022-10-10T23:51:06.669Z,9.82
2022-10-10T23:53:35.356Z,8.63
2022-10-10T23:56:04.289Z,16.45
2022-10-10T23:58:32.779Z,12.52
